Big Bear Station Historical Data
Daily Summary for May 19, 2019 Units:  English    Metric   Both
Next Day »
Daily Weekly Monthly Yearly Custom
  High: Low: Average:
Temperature: 44.2 °F 31.5 °F 36.4 °F
Dew Point: 38.4 °F 30 °F 33.7 °F
Humidity: 98% 71% 90%
Wind Speed: 9.9mph 0mph 2.7mph
Wind Gust: -999mph - -
Wind- - SSW
Pressure: 23.33 in 23.24 in -
Precipitation: 0.35 in    
Historical Graphs
 
 
Tabular Data for May 19, 2019
Time Temperature Dew Point Pressure Wind Wind Speed Wind Gust Humidity Rainfall Rate (Hourly)
00:13 40.3 °F 36.7 °F 23.33 in SW 2.7 mph -999 mph 87% 0.00 in
00:28 39.9 °F 36.6 °F 23.33 in South 6.3 mph -999 mph 88% 0.00 in
00:43 38.7 °F 35.7 °F 23.32 in NW 1.1 mph -999 mph 89% 0.00 in
00:58 37.6 °F 35.2 °F 23.32 in WSW 1.7 mph -999 mph 91% 0.00 in
01:13 37.6 °F 35.5 °F 23.32 in ESE 4.2 mph -999 mph 92% 0.00 in
01:29 37.6 °F 35.8 °F 23.31 in South 5.3 mph -999 mph 93% 0.00 in
01:44 37.8 °F 36 °F 23.31 in Calm   -999 mph 93% 0.00 in
01:59 37.6 °F 36.3 °F 23.31 in NNW 2.2 mph -999 mph 95% 0.00 in
02:14 37.6 °F 36 °F 23.30 in South 3.2 mph -999 mph 94% 0.00 in
02:29 37.2 °F 35.6 °F 23.30 in ENE 2.2 mph -999 mph 94% 0.00 in
02:45 36.5 °F 35.2 °F 23.29 in Calm   -999 mph 95% 0.00 in
03:00 36.5 °F 34.9 °F 23.28 in Calm   -999 mph 94% 0.00 in
03:15 35.8 °F 34.2 °F 23.28 in ENE 2.2 mph -999 mph 94% 0.00 in
03:30 35.8 °F 34.5 °F 23.27 in SSE 2.2 mph -999 mph 95% 0.00 in
03:45 35.4 °F 34.1 °F 23.28 in Calm   -999 mph 95% 0.00 in
04:01 35.1 °F 33.8 °F 23.28 in Calm   -999 mph 95% 0.00 in
04:16 34.7 °F 33.4 °F 23.27 in Calm   -999 mph 95% 0.00 in
04:31 34.2 °F 32.9 °F 23.27 in Calm   -999 mph 95% 0.00 in
04:46 33.6 °F 32.3 °F 23.27 in Calm   -999 mph 95% 0.00 in
05:01 33.4 °F 32.4 °F 23.27 in Calm   -999 mph 96% 0.00 in
05:18 33.1 °F 32.1 °F 23.26 in Calm   -999 mph 96% 0.00 in
05:33 32.7 °F 31.9 °F 23.26 in Calm   -999 mph 97% 0.00 in
05:49 32.5 °F 31.7 °F 23.27 in NW 1.1 mph -999 mph 97% 0.00 in
06:05 32.5 °F 31.7 °F 23.27 in WSW 1.7 mph -999 mph 97% 0.00 in
06:21 32.9 °F 32.4 °F 23.27 in Calm   -999 mph 98% 0.00 in
06:36 33.1 °F 32.6 °F 23.27 in Calm   -999 mph 98% 0.00 in
06:51 33.6 °F 33.1 °F 23.27 in Calm   -999 mph 98% 0.00 in
07:06 34 °F 33.5 °F 23.26 in Calm   -999 mph 98% 0.00 in
07:23 33.4 °F 32.9 °F 23.27 in SE 4.2 mph -999 mph 98% 0.00 in
07:38 34 °F 33.5 °F 23.27 in Calm   -999 mph 98% 0.00 in
07:56 34.9 °F 34.4 °F 23.28 in NNW 4.2 mph -999 mph 98% 0.00 in
08:11 35.1 °F 34.6 °F 23.28 in West 2.7 mph -999 mph 98% 0.00 in
08:28 35.4 °F 34.9 °F 23.28 in West 3.2 mph -999 mph 98% 0.00 in
08:43 35.6 °F 34.8 °F 23.28 in Calm   -999 mph 97% 0.00 in
09:00 36.1 °F 34.8 °F 23.28 in NW 3.2 mph -999 mph 95% 0.00 in
09:15 36.5 °F 34.9 °F 23.28 in South 2.2 mph -999 mph 94% 0.00 in
09:31 37.9 °F 35.8 °F 23.28 in WNW 2.2 mph -999 mph 92% 0.00 in
09:46 37.8 °F 35.4 °F 23.28 in SSE 2.2 mph -999 mph 91% 0.00 in
10:03 38.5 °F 35.8 °F 23.28 in NNW 5.3 mph -999 mph 90% 0.00 in
10:20 37.6 °F 34.9 °F 23.28 in NW 2.2 mph -999 mph 90% 0.00 in
10:35 38.7 °F 36.3 °F 23.29 in SW 7.8 mph -999 mph 91% 0.00 in
10:52 39 °F 35.2 °F 23.29 in NW 2.2 mph -999 mph 86% 0.00 in
11:10 41.4 °F 36.3 °F 23.30 in SSE 4.2 mph -999 mph 82% 0.00 in
11:25 40.8 °F 34.8 °F 23.30 in SW 8.3 mph -999 mph 79% 0.00 in
11:42 42.3 °F 35.9 °F 23.30 in SE 3.7 mph -999 mph 78% 0.00 in
11:57 41.5 °F 34.8 °F 23.30 in WSW 4.2 mph -999 mph 77% 0.00 in
12:14 42.8 °F 36.4 °F 23.30 in South 3.2 mph -999 mph 78% 0.00 in
12:30 41.4 °F 35.4 °F 23.30 in SW 6.8 mph -999 mph 79% 0.00 in
12:45 44.2 °F 36.4 °F 23.30 in NW 9.9 mph -999 mph 74% 0.00 in
13:01 41.4 °F 38.4 °F 23.29 in WSW 1.7 mph -999 mph 89% 0.00 in
13:18 39.7 °F 35.9 °F 23.29 in South 5.3 mph -999 mph 86% 0.00 in
13:33 37.9 °F 34.1 °F 23.29 in East 2.2 mph -999 mph 86% 0.00 in
13:48 37.6 °F 34.1 °F 23.30 in SE 2.2 mph -999 mph 87% 0.00 in
14:03 40.3 °F 35.9 °F 23.29 in SE 3.7 mph -999 mph 84% 0.00 in
14:19 41.2 °F 35.8 °F 23.29 in SSW 3.7 mph -999 mph 81% 0.00 in
14:36 39.2 °F 35.7 °F 23.29 in SSW 3.7 mph -999 mph 87% 0.00 in
14:51 41.2 °F 36.4 °F 23.29 in NNW 6.3 mph -999 mph 83% 0.00 in
15:09 41.9 °F 35.9 °F 23.29 in NNW 3.2 mph -999 mph 79% 0.00 in
15:24 41.2 °F 34.5 °F 23.29 in ESE 3.7 mph -999 mph 77% 0.00 in
15:40 42.6 °F 34.2 °F 23.28 in South 3.2 mph -999 mph 72% 0.00 in
15:57 43.3 °F 34.5 °F 23.27 in ESE 3.7 mph -999 mph 71% 0.00 in
16:12 42.4 °F 34.4 °F 23.27 in South 5.3 mph -999 mph 73% 0.00 in
16:29 40.8 °F 34.8 °F 23.27 in North 2.7 mph -999 mph 79% 0.00 in
16:45 38.3 °F 33.9 °F 23.26 in SW 1.1 mph -999 mph 84% 0.00 in
17:03 38.5 °F 34.1 °F 23.25 in ENE 1.1 mph -999 mph 84% 0.00 in
17:18 38.5 °F 34.1 °F 23.26 in NW 2.7 mph -999 mph 84% 0.00 in
17:34 36.5 °F 32.4 °F 23.26 in North 3.7 mph -999 mph 85% 0.00 in
17:49 36.1 °F 32.3 °F 23.25 in South 1.7 mph -999 mph 86% 0.00 in
18:05 36 °F 31.9 °F 23.25 in WNW 2.2 mph -999 mph 85% 0.00 in
18:20 36 °F 32.2 °F 23.25 in SE 4.7 mph -999 mph 86% 0.00 in
18:35 35.6 °F 32.7 °F 23.25 in NE 1.7 mph -999 mph 89% 0.00 in
18:50 35.6 °F 32.7 °F 23.24 in SSE 2.7 mph -999 mph 89% 0.00 in
19:06 35.1 °F 31.6 °F 23.24 in South 2.7 mph -999 mph 87% 0.00 in
19:21 34.5 °F 31.6 °F 23.24 in NW 6.3 mph -999 mph 89% 0.00 in
19:36 34.3 °F 31.9 °F 23.25 in South 3.2 mph -999 mph 91% 0.00 in
19:51 32.9 °F 31.4 °F 23.25 in South 3.7 mph -999 mph 94% 0.00 in
20:06 32.9 °F 31.6 °F 23.25 in Calm   -999 mph 95% 0.00 in
20:22 32.2 °F 30.4 °F 23.25 in WNW 5.8 mph -999 mph 93% 0.00 in
20:38 32 °F 30.5 °F 23.26 in WSW 4.2 mph -999 mph 94% 0.00 in
20:53 31.8 °F 30.3 °F 23.25 in Calm   -999 mph 94% 0.00 in
21:08 31.6 °F 30.1 °F 23.25 in West 1.7 mph -999 mph 94% 0.00 in
21:23 31.8 °F 30.3 °F 23.24 in SSE 3.2 mph -999 mph 94% 0.00 in
21:39 31.8 °F 30 °F 23.25 in ESE 4.2 mph -999 mph 93% 0.00 in
21:54 32 °F 30.5 °F 23.25 in South 4.2 mph -999 mph 94% 0.00 in
22:09 32 °F 30.7 °F 23.25 in SSE 2.2 mph -999 mph 95% 0.00 in
22:24 32 °F 30.7 °F 23.25 in NW 3.2 mph -999 mph 95% 0.00 in
22:39 31.8 °F 30.8 °F 23.25 in NE 3.7 mph -999 mph 96% 0.00 in
22:55 31.5 °F 30.5 °F 23.24 in ESE 3.2 mph -999 mph 96% 0.00 in
23:10 31.5 °F 30.2 °F 23.25 in NW 3.7 mph -999 mph 95% 0.00 in
23:25 31.6 °F 30.6 °F 23.24 in NW 3.2 mph -999 mph 96% 0.00 in
23:40 31.6 °F 30.8 °F 23.24 in Calm   -999 mph 97% 0.00 in
23:56 31.8 °F 31 °F 23.24 in NE 3.7 mph -999 mph 97% 0.00 in
Big Bear CA Weather